createdAt,value
2022-08-08T00:00:52.850Z,10.70
2022-08-08T00:02:37.300Z,10.70
2022-08-08T00:05:13.393Z,10.70
2022-08-08T00:07:52.834Z,10.70
2022-08-08T00:10:28.474Z,10.70
2022-08-08T00:13:10.207Z,10.70
2022-08-08T00:15:56.955Z,10.60
2022-08-08T00:18:35.777Z,10.60
2022-08-08T00:21:07.861Z,10.50
2022-08-08T00:23:47.481Z,10.50
2022-08-08T00:26:29.606Z,10.50
2022-08-08T00:29:08.150Z,10.50
2022-08-08T00:32:07.840Z,10.50
2022-08-08T00:35:18.658Z,10.40
2022-08-08T00:38:03.927Z,10.40
2022-08-08T00:41:09.730Z,10.40
2022-08-08T00:44:00.911Z,10.40
2022-08-08T00:47:19.954Z,10.40
2022-08-08T00:50:52.371Z,10.40
2022-08-08T00:53:43.768Z,10.40
2022-08-08T00:56:59.992Z,10.30
2022-08-08T00:59:53.670Z,10.30
2022-08-08T01:03:57.934Z,10.20
2022-08-08T01:06:39.509Z,10.20
2022-08-08T01:09:50.865Z,10.20
2022-08-08T01:12:54.585Z,10.20
2022-08-08T01:15:56.683Z,10.20
2022-08-08T01:18:52.782Z,10.20
2022-08-08T01:22:12.119Z,10.20
2022-08-08T01:24:58.209Z,10.10
2022-08-08T01:28:02.183Z,10.10
2022-08-08T01:32:12.739Z,10.10
2022-08-08T01:34:46.418Z,10.10
2022-08-08T01:37:57.450Z,10.10
2022-08-08T01:41:02.915Z,10.10
2022-08-08T01:43:44.032Z,10.20
2022-08-08T01:46:39.661Z,10.10
2022-08-08T01:49:23.405Z,10.20
2022-08-08T01:52:57.336Z,10.20
2022-08-08T01:56:26.210Z,10.10
2022-08-08T01:58:38.108Z,10.10
2022-08-08T02:01:20.656Z,10.10
2022-08-08T02:04:07.065Z,10.00
2022-08-08T02:06:55.357Z,10.00
2022-08-08T02:10:04.131Z,10.00
2022-08-08T02:12:44.947Z,10.00
2022-08-08T02:15:20.611Z,10.00
2022-08-08T02:17:59.803Z,10.00
2022-08-08T02:21:01.004Z,9.90
2022-08-08T02:23:31.610Z,9.90
2022-08-08T02:26:09.995Z,9.80
2022-08-08T02:28:52.435Z,9.70
2022-08-08T02:31:58.987Z,9.70
2022-08-08T02:35:11.337Z,9.70
2022-08-08T02:37:57.047Z,9.60
2022-08-08T02:40:43.712Z,9.60
2022-08-08T02:44:38.104Z,9.60
2022-08-08T02:46:54.691Z,9.50
2022-08-08T02:49:56.908Z,9.60
2022-08-08T02:52:42.382Z,9.60
2022-08-08T02:55:57.728Z,9.50
2022-08-08T02:59:26.106Z,9.60
2022-08-08T03:02:35.634Z,9.50
2022-08-08T03:05:45.093Z,9.50
2022-08-08T03:08:55.112Z,9.40
2022-08-08T03:12:13.922Z,9.40
2022-08-08T03:15:59.619Z,9.30
2022-08-08T03:17:59.697Z,9.30
2022-08-08T03:20:47.087Z,9.30
2022-08-08T03:23:24.486Z,9.30
2022-08-08T03:26:08.381Z,9.20
2022-08-08T03:28:42.667Z,9.20
2022-08-08T03:31:26.628Z,9.10
2022-08-08T03:34:00.570Z,9.10
2022-08-08T03:36:31.333Z,9.10
2022-08-08T03:39:14.855Z,9.00
2022-08-08T03:42:28.314Z,9.00
2022-08-08T03:44:38.621Z,9.10
2022-08-08T03:47:20.057Z,9.10
2022-08-08T03:49:59.680Z,9.20
2022-08-08T03:52:34.107Z,9.20
2022-08-08T03:55:55.066Z,9.20
2022-08-08T03:58:36.213Z,9.20
2022-08-08T04:01:02.821Z,9.10
2022-08-08T04:03:58.867Z,9.10
2022-08-08T04:06:34.628Z,9.00
2022-08-08T04:09:11.186Z,9.00
2022-08-08T04:11:58.930Z,8.90
2022-08-08T04:14:39.450Z,8.80
2022-08-08T04:17:22.311Z,8.80
2022-08-08T04:20:02.127Z,8.80
2022-08-08T04:22:33.136Z,8.80
2022-08-08T04:25:02.257Z,8.80
2022-08-08T04:28:02.346Z,8.80
2022-08-08T04:30:21.861Z,8.90
2022-08-08T04:32:53.273Z,8.90
2022-08-08T04:35:24.328Z,9.00
2022-08-08T04:37:55.167Z,9.00
2022-08-08T04:40:28.116Z,9.10
2022-08-08T04:43:01.111Z,9.10
2022-08-08T04:45:43.711Z,9.20
2022-08-08T04:48:11.803Z,9.20
2022-08-08T04:50:46.206Z,9.30
2022-08-08T04:54:26.766Z,9.40
2022-08-08T04:56:08.259Z,9.50
2022-08-08T04:58:38.979Z,9.80
2022-08-08T05:01:11.122Z,10.20
2022-08-08T05:04:09.956Z,10.60
2022-08-08T05:06:39.284Z,11.40
2022-08-08T05:09:08.942Z,12.30
2022-08-08T05:11:41.054Z,13.00
2022-08-08T05:14:14.143Z,13.70
2022-08-08T05:16:52.271Z,14.40
2022-08-08T05:20:10.476Z,15.10
2022-08-08T05:22:17.644Z,15.70
2022-08-08T05:24:49.387Z,16.30
2022-08-08T05:27:21.601Z,16.70
2022-08-08T05:29:52.507Z,17.20
2022-08-08T05:32:27.229Z,17.50
2022-08-08T05:35:04.837Z,17.90
2022-08-08T05:37:52.800Z,18.10
2022-08-08T05:40:27.996Z,18.50
2022-08-08T05:43:03.207Z,18.80
2022-08-08T05:45:53.115Z,19.00
2022-08-08T05:48:28.881Z,19.20
2022-08-08T05:51:14.860Z,19.40
2022-08-08T05:54:26.083Z,19.70
2022-08-08T05:56:42.568Z,20.00
2022-08-08T05:59:53.800Z,20.30
2022-08-08T06:02:38.691Z,20.60
2022-08-08T06:05:33.634Z,20.90
2022-08-08T06:08:02.733Z,21.20
2022-08-08T06:10:34.913Z,21.40
2022-08-08T06:13:08.252Z,21.50
2022-08-08T06:15:50.652Z,21.60
2022-08-08T06:18:30.152Z,21.70
2022-08-08T06:20:59.633Z,21.70
2022-08-08T06:23:52.966Z,21.80
2022-08-08T06:26:44.803Z,21.90
2022-08-08T06:29:56.660Z,22.00
2022-08-08T06:32:17.413Z,22.00
2022-08-08T06:34:57.706Z,22.00
2022-08-08T06:37:50.910Z,22.10
2022-08-08T06:40:27.053Z,22.10
2022-08-08T06:42:57.753Z,22.10
2022-08-08T06:45:34.059Z,22.30
2022-08-08T06:48:04.535Z,22.40
2022-08-08T06:50:40.264Z,22.60
2022-08-08T06:53:17.357Z,22.70
2022-08-08T06:56:02.550Z,22.90
2022-08-08T06:58:35.062Z,22.90
2022-08-08T07:01:24.577Z,23.00
2022-08-08T07:04:36.923Z,23.20
2022-08-08T07:07:01.950Z,23.30
2022-08-08T07:09:59.753Z,23.30
2022-08-08T07:12:42.969Z,23.30
2022-08-08T07:15:23.446Z,23.40
2022-08-08T07:18:34.647Z,23.60
2022-08-08T07:20:58.419Z,23.60
2022-08-08T07:24:02.097Z,23.50
2022-08-08T07:26:32.841Z,23.60
2022-08-08T07:29:08.220Z,23.70
2022-08-08T07:31:49.625Z,23.90
2022-08-08T07:34:20.054Z,24.00
2022-08-08T07:36:58.562Z,24.00
2022-08-08T07:39:45.781Z,24.00
2022-08-08T07:42:32.901Z,24.20
2022-08-08T07:45:03.110Z,24.30
2022-08-08T07:47:39.015Z,24.50
2022-08-08T07:50:10.694Z,24.70
2022-08-08T07:52:44.311Z,24.90
2022-08-08T07:55:23.327Z,24.90
2022-08-08T07:58:14.614Z,24.60
2022-08-08T08:00:49.369Z,24.30
2022-08-08T08:03:28.384Z,24.50
2022-08-08T08:06:00.430Z,24.70
2022-08-08T08:08:50.301Z,24.60
2022-08-08T08:11:33.667Z,24.70
2022-08-08T08:14:09.697Z,24.90
2022-08-08T08:16:48.509Z,24.80
2022-08-08T08:19:19.686Z,25.00
2022-08-08T08:21:57.223Z,25.30
2022-08-08T08:24:42.940Z,25.60
2022-08-08T08:27:27.706Z,25.50
2022-08-08T08:29:58.280Z,25.70
2022-08-08T08:32:36.479Z,26.00
2022-08-08T08:35:11.286Z,26.20
2022-08-08T08:38:12.912Z,26.40
2022-08-08T08:40:32.720Z,26.20
2022-08-08T08:43:08.981Z,26.30
2022-08-08T08:45:44.339Z,26.30
2022-08-08T08:48:16.375Z,26.20
2022-08-08T08:50:53.289Z,26.50
2022-08-08T08:53:28.305Z,26.70
2022-08-08T08:56:18.332Z,26.90
2022-08-08T08:58:57.948Z,27.10
2022-08-08T09:01:35.000Z,27.10
2022-08-08T09:04:31.745Z,26.90
2022-08-08T09:07:12.629Z,26.70
2022-08-08T09:09:47.803Z,27.00
2022-08-08T09:12:24.477Z,27.10
2022-08-08T09:14:56.702Z,27.30
2022-08-08T09:17:31.845Z,27.50
2022-08-08T09:22:01.322Z,27.40
2022-08-08T09:23:03.454Z,27.30
2022-08-08T09:25:47.451Z,27.30
2022-08-08T09:28:37.855Z,27.00
2022-08-08T09:31:15.479Z,27.00
2022-08-08T09:34:14.665Z,27.20
2022-08-08T09:36:51.757Z,26.90
2022-08-08T09:39:36.620Z,26.80
2022-08-08T09:42:20.411Z,26.80
2022-08-08T09:45:04.082Z,26.70
2022-08-08T09:48:10.028Z,26.40
2022-08-08T09:50:32.539Z,26.60
2022-08-08T09:53:14.373Z,26.70
2022-08-08T09:56:04.465Z,26.70
2022-08-08T09:58:41.610Z,27.00
2022-08-08T10:01:58.618Z,27.30
2022-08-08T10:04:05.252Z,27.60
2022-08-08T10:06:35.898Z,27.70
2022-08-08T10:09:08.539Z,27.40
2022-08-08T10:12:26.756Z,27.20
2022-08-08T10:14:38.418Z,27.20
2022-08-08T10:18:08.530Z,27.10
2022-08-08T10:20:04.164Z,27.00
2022-08-08T10:22:35.872Z,27.30
2022-08-08T10:25:07.290Z,27.30
2022-08-08T10:27:44.659Z,27.30
2022-08-08T10:30:56.903Z,27.60
2022-08-08T10:33:03.256Z,27.70
2022-08-08T10:36:20.417Z,27.70
2022-08-08T10:38:23.776Z,27.80
2022-08-08T10:40:53.953Z,27.90
2022-08-08T10:43:23.447Z,28.10
2022-08-08T10:45:57.202Z,28.20
2022-08-08T10:48:37.223Z,28.10
2022-08-08T10:51:14.633Z,27.90
2022-08-08T10:53:57.281Z,27.80
2022-08-08T10:56:34.894Z,27.90
2022-08-08T10:59:08.291Z,27.80
2022-08-08T11:01:39.534Z,28.00
2022-08-08T11:04:11.884Z,28.00
2022-08-08T11:06:47.389Z,28.20
2022-08-08T11:09:21.366Z,28.30
2022-08-08T11:12:05.160Z,28.30
2022-08-08T11:14:53.756Z,27.90
2022-08-08T11:18:00.688Z,27.80
2022-08-08T11:20:17.879Z,28.10
2022-08-08T11:22:52.550Z,28.20
2022-08-08T11:25:52.100Z,28.10
2022-08-08T11:28:15.867Z,28.30
2022-08-08T11:30:50.053Z,28.20
2022-08-08T11:33:35.289Z,28.50
2022-08-08T11:36:15.456Z,28.80
2022-08-08T11:38:54.818Z,29.00
2022-08-08T11:41:24.981Z,28.80
2022-08-08T11:43:57.752Z,28.60
2022-08-08T11:46:28.160Z,28.40
2022-08-08T11:48:59.575Z,28.40
2022-08-08T11:51:37.350Z,28.60
2022-08-08T11:54:32.476Z,28.60
2022-08-08T11:57:13.918Z,28.30
2022-08-08T12:00:00.183Z,28.50
2022-08-08T12:02:48.722Z,28.60
2022-08-08T12:05:22.677Z,28.20
2022-08-08T12:07:52.472Z,28.30
2022-08-08T12:10:23.664Z,28.50
2022-08-08T12:13:02.005Z,28.60
2022-08-08T12:15:42.450Z,28.50
2022-08-08T12:18:21.518Z,28.60
2022-08-08T12:20:54.254Z,29.00
2022-08-08T12:23:40.022Z,29.30
2022-08-08T12:26:17.198Z,29.50
2022-08-08T12:28:58.372Z,29.70
2022-08-08T12:31:39.499Z,29.60
2022-08-08T12:34:36.441Z,29.80
2022-08-08T12:37:08.569Z,29.60
2022-08-08T12:40:00.234Z,29.70
2022-08-08T12:42:32.872Z,29.70
2022-08-08T12:45:19.903Z,29.50
2022-08-08T12:48:09.977Z,29.60
2022-08-08T12:50:49.711Z,29.10
2022-08-08T12:53:23.865Z,28.90
2022-08-08T12:56:17.418Z,29.10
2022-08-08T12:58:51.430Z,29.40
2022-08-08T13:01:29.530Z,29.80
2022-08-08T13:04:19.217Z,30.10
2022-08-08T13:07:02.934Z,30.10
2022-08-08T13:09:57.571Z,29.70
2022-08-08T13:12:29.248Z,29.60
2022-08-08T13:15:03.234Z,29.50
2022-08-08T13:17:53.889Z,29.30
2022-08-08T13:20:25.962Z,29.40
2022-08-08T13:23:36.534Z,29.30
2022-08-08T13:25:50.462Z,29.20
2022-08-08T13:28:32.490Z,28.90
2022-08-08T13:31:04.042Z,29.20
2022-08-08T13:33:42.284Z,29.40
2022-08-08T13:36:12.163Z,29.60
2022-08-08T13:38:40.936Z,29.40
2022-08-08T13:41:16.720Z,29.50
2022-08-08T13:43:47.096Z,29.70
2022-08-08T13:46:27.219Z,29.90
2022-08-08T13:50:33.264Z,29.80
2022-08-08T13:51:56.338Z,30.00
2022-08-08T13:54:29.317Z,30.20
2022-08-08T13:57:08.830Z,30.30
2022-08-08T13:59:47.878Z,30.40
2022-08-08T14:02:20.832Z,30.50
2022-08-08T14:04:57.491Z,30.10
2022-08-08T14:07:35.921Z,30.10
2022-08-08T14:10:11.784Z,30.30
2022-08-08T14:12:46.713Z,30.40
2022-08-08T14:15:31.142Z,29.40
2022-08-08T14:18:34.561Z,29.00
2022-08-08T14:21:03.678Z,28.70
2022-08-08T14:24:07.820Z,28.60
2022-08-08T14:26:33.224Z,28.80
2022-08-08T14:29:06.073Z,29.00
2022-08-08T14:32:10.821Z,29.20
2022-08-08T14:34:39.067Z,29.40
2022-08-08T14:37:08.725Z,29.50
2022-08-08T14:39:47.859Z,29.50
2022-08-08T14:42:26.649Z,29.30
2022-08-08T14:44:57.872Z,28.80
2022-08-08T14:47:30.274Z,28.70
2022-08-08T14:50:15.108Z,28.80
2022-08-08T14:52:57.114Z,28.80
2022-08-08T14:55:35.212Z,28.90
2022-08-08T14:58:12.012Z,29.10
2022-08-08T15:00:44.761Z,29.30
2022-08-08T15:03:15.977Z,29.20
2022-08-08T15:05:53.533Z,28.50
2022-08-08T15:08:33.387Z,28.60
2022-08-08T15:11:04.188Z,28.60
2022-08-08T15:13:40.315Z,28.60
2022-08-08T15:16:12.158Z,28.70
2022-08-08T15:18:49.935Z,28.90
2022-08-08T15:21:21.153Z,29.00
2022-08-08T15:23:51.181Z,29.10
2022-08-08T15:26:20.625Z,29.30
2022-08-08T15:28:50.935Z,28.90
2022-08-08T15:31:56.339Z,28.60
2022-08-08T15:34:29.828Z,28.40
2022-08-08T15:37:03.293Z,28.30
2022-08-08T15:39:37.909Z,28.30
2022-08-08T15:42:18.058Z,28.30
2022-08-08T15:44:58.662Z,28.40
2022-08-08T15:47:26.665Z,28.50
2022-08-08T15:49:55.664Z,28.20
2022-08-08T15:52:25.990Z,28.20
2022-08-08T15:54:55.020Z,28.20
2022-08-08T15:57:24.403Z,28.20
2022-08-08T16:00:05.220Z,28.20
2022-08-08T16:02:44.189Z,28.20
2022-08-08T16:05:19.561Z,28.20
2022-08-08T16:07:52.335Z,28.20
2022-08-08T16:13:09.810Z,28.20
2022-08-08T16:13:30.874Z,28.20
2022-08-08T16:16:09.546Z,28.10
2022-08-08T16:18:53.379Z,28.00
2022-08-08T16:21:29.120Z,27.80
2022-08-08T16:24:00.128Z,27.50
2022-08-08T16:26:34.273Z,27.40
2022-08-08T16:29:08.200Z,27.30
2022-08-08T16:31:40.816Z,27.30
2022-08-08T16:34:10.246Z,27.20
2022-08-08T16:36:40.730Z,27.00
2022-08-08T16:39:27.974Z,26.80
2022-08-08T16:42:01.082Z,26.60
2022-08-08T16:44:34.285Z,26.40
2022-08-08T16:47:21.708Z,26.10
2022-08-08T16:50:01.276Z,26.00
2022-08-08T16:55:06.470Z,25.60
2022-08-08T16:55:42.651Z,25.40
2022-08-08T16:58:14.159Z,25.40
2022-08-08T17:00:48.911Z,25.30
2022-08-08T17:03:25.221Z,25.30
2022-08-08T17:06:37.591Z,25.00
2022-08-08T17:08:57.431Z,24.90
2022-08-08T17:11:28.017Z,24.90
2022-08-08T17:14:11.602Z,24.90
2022-08-08T17:16:57.392Z,24.90
2022-08-08T17:19:27.273Z,24.80
2022-08-08T17:21:55.655Z,24.70
2022-08-08T17:24:27.745Z,24.70
2022-08-08T17:27:01.263Z,24.60
2022-08-08T17:29:34.089Z,24.50
2022-08-08T17:32:08.001Z,24.50
2022-08-08T17:35:00.189Z,24.50
2022-08-08T17:37:25.853Z,24.50
2022-08-08T17:40:12.402Z,24.30
2022-08-08T17:42:47.233Z,24.30
2022-08-08T17:45:23.412Z,24.20
2022-08-08T17:47:54.758Z,24.20
2022-08-08T17:50:23.882Z,24.20
2022-08-08T17:52:52.847Z,24.10
2022-08-08T17:56:05.884Z,24.00
2022-08-08T17:58:12.338Z,24.00
2022-08-08T18:00:41.362Z,24.00
2022-08-08T18:03:13.062Z,23.90
2022-08-08T18:05:49.441Z,23.90
2022-08-08T18:08:25.088Z,23.70
2022-08-08T18:11:11.634Z,23.70
2022-08-08T18:13:45.679Z,23.60
2022-08-08T18:16:16.722Z,23.50
2022-08-08T18:18:54.019Z,23.50
2022-08-08T18:21:59.956Z,23.40
2022-08-08T18:24:19.086Z,23.40
2022-08-08T18:26:54.346Z,23.30
2022-08-08T18:29:32.907Z,23.30
2022-08-08T18:32:04.169Z,23.20
2022-08-08T18:34:33.399Z,23.10
2022-08-08T18:37:04.729Z,23.00
2022-08-08T18:39:36.539Z,22.90
2022-08-08T18:42:12.964Z,22.80
2022-08-08T18:44:55.013Z,22.70
2022-08-08T18:47:28.386Z,22.60
2022-08-08T18:50:02.768Z,22.40
2022-08-08T18:52:33.825Z,22.30
2022-08-08T18:55:10.880Z,22.00
2022-08-08T18:57:43.344Z,21.90
2022-08-08T19:00:20.148Z,21.70
2022-08-08T19:02:56.646Z,21.50
2022-08-08T19:05:34.277Z,21.30
2022-08-08T19:08:24.708Z,21.10
2022-08-08T19:10:57.767Z,20.90
2022-08-08T19:13:52.378Z,20.70
2022-08-08T19:16:19.433Z,20.60
2022-08-08T19:18:54.556Z,20.30
2022-08-08T19:21:30.509Z,20.10
2022-08-08T19:24:01.297Z,20.00
2022-08-08T19:26:35.014Z,19.90
2022-08-08T19:29:04.723Z,19.80
2022-08-08T19:31:36.950Z,19.70
2022-08-08T19:34:35.764Z,19.60
2022-08-08T19:36:55.442Z,19.50
2022-08-08T19:39:30.914Z,19.50
2022-08-08T19:42:06.924Z,19.40
2022-08-08T19:44:45.916Z,19.30
2022-08-08T19:47:24.578Z,19.20
2022-08-08T19:49:59.433Z,19.00
2022-08-08T19:52:35.171Z,18.90
2022-08-08T19:55:09.404Z,18.80
2022-08-08T19:57:41.184Z,18.60
2022-08-08T20:00:30.082Z,18.50
2022-08-08T20:03:14.576Z,18.40
2022-08-08T20:06:13.400Z,18.20
2022-08-08T20:08:32.300Z,18.00
2022-08-08T20:11:01.064Z,17.90
2022-08-08T20:14:34.698Z,17.70
2022-08-08T20:16:18.490Z,17.60
2022-08-08T20:18:53.160Z,17.40
2022-08-08T20:21:23.147Z,17.30
2022-08-08T20:23:57.542Z,17.20
2022-08-08T20:26:33.806Z,17.10
2022-08-08T20:29:02.973Z,16.90
2022-08-08T20:32:06.938Z,16.90
2022-08-08T20:34:29.794Z,16.80
2022-08-08T20:37:00.968Z,16.80
2022-08-08T20:39:39.599Z,16.70
2022-08-08T20:42:20.390Z,16.60
2022-08-08T20:44:51.894Z,16.50
2022-08-08T20:47:23.169Z,16.50
2022-08-08T20:49:55.871Z,16.40
2022-08-08T20:52:27.709Z,16.20
2022-08-08T20:54:56.414Z,16.10
2022-08-08T20:57:27.737Z,16.00
2022-08-08T20:59:56.319Z,15.80
2022-08-08T21:02:25.706Z,15.70
2022-08-08T21:04:57.337Z,15.50
2022-08-08T21:07:47.134Z,15.30
2022-08-08T21:10:17.827Z,15.20
2022-08-08T21:12:54.251Z,15.00
2022-08-08T21:16:05.970Z,15.00
2022-08-08T21:18:11.888Z,14.90
2022-08-08T21:20:41.919Z,14.90
2022-08-08T21:23:13.098Z,14.80
2022-08-08T21:25:46.133Z,14.80
2022-08-08T21:28:33.334Z,14.70
2022-08-08T21:31:21.903Z,14.70
2022-08-08T21:33:51.488Z,14.60
2022-08-08T21:36:28.688Z,14.50
2022-08-08T21:38:58.233Z,14.50
2022-08-08T21:41:38.300Z,14.40
2022-08-08T21:44:16.193Z,14.40
2022-08-08T21:48:07.945Z,14.30
2022-08-08T21:49:34.006Z,14.30
2022-08-08T21:54:35.368Z,14.20
2022-08-08T21:54:58.230Z,14.10
2022-08-08T21:57:41.893Z,14.00
2022-08-08T22:00:14.578Z,13.80
2022-08-08T22:02:44.129Z,13.80
2022-08-08T22:05:14.670Z,13.70
2022-08-08T22:07:48.093Z,13.70
2022-08-08T22:10:32.137Z,13.70
2022-08-08T22:13:17.388Z,13.60
2022-08-08T22:15:59.268Z,13.50
2022-08-08T22:18:30.122Z,13.40
2022-08-08T22:21:01.543Z,13.30
2022-08-08T22:23:49.573Z,13.20
2022-08-08T22:26:28.733Z,13.20
2022-08-08T22:29:13.131Z,13.10
2022-08-08T22:32:01.554Z,13.00
2022-08-08T22:34:32.267Z,13.00
2022-08-08T22:37:00.746Z,12.90
2022-08-08T22:39:45.928Z,12.90
2022-08-08T22:42:26.984Z,12.80
2022-08-08T22:44:56.125Z,12.80
2022-08-08T22:47:24.527Z,12.70
2022-08-08T22:50:09.870Z,12.70
2022-08-08T22:54:15.753Z,12.70
2022-08-08T22:55:58.101Z,12.70
2022-08-08T22:58:30.956Z,12.70
2022-08-08T23:01:00.045Z,12.70
2022-08-08T23:03:34.457Z,12.60
2022-08-08T23:06:16.934Z,12.60
2022-08-08T23:08:55.062Z,12.60
2022-08-08T23:12:17.282Z,12.60
2022-08-08T23:14:16.237Z,12.60
2022-08-08T23:16:47.175Z,12.60
2022-08-08T23:19:21.190Z,12.50
2022-08-08T23:21:49.532Z,12.50
2022-08-08T23:24:22.540Z,12.40
2022-08-08T23:26:55.775Z,12.40
2022-08-08T23:29:25.517Z,12.40
2022-08-08T23:31:53.883Z,12.40
2022-08-08T23:34:22.363Z,12.40
2022-08-08T23:36:56.560Z,12.40
2022-08-08T23:39:31.903Z,12.40
2022-08-08T23:42:02.426Z,12.40
2022-08-08T23:44:31.835Z,12.40
2022-08-08T23:49:01.804Z,12.40
2022-08-08T23:49:49.612Z,12.40
2022-08-08T23:52:31.760Z,12.40
2022-08-08T23:55:07.146Z,12.40
2022-08-08T23:57:52.552Z,12.40
